Time;durP1;ratioP1;P1;durP2;ratioP2;P2;SDS_P1;SDS_P2;PMS_P1;PMS_P2;Temp;Humidity;BMP_temperature;BMP_pressure;BME280_temperature;BME280_humidity;BME280_pressure;Samples;Min_cycle;Max_cycle;Signal;HPM_P1;HPM_P2
2023/06/30 00:00:08;;;;;;;;;1.00;1.00;;;;;16.82;64.22;101508.75;5046385;28;8852;-66
2023/06/30 00:02:36;;;;;;;;;2.00;2.00;;;;;16.81;64.27;101507.06;5045962;28;8916;-65
2023/06/30 00:05:03;;;;;;;;;1.00;1.00;;;;;16.77;64.31;101503.97;5022002;28;8930;-66
2023/06/30 00:07:29;;;;;;;;;2.50;2.00;;;;;16.74;64.14;101498.13;5043692;28;9003;-66
2023/06/30 00:09:56;;;;;;;;;1.00;1.00;;;;;16.71;64.30;101495.81;5051103;28;8972;-66
2023/06/30 00:12:22;;;;;;;;;2.00;2.00;;;;;16.68;64.17;101502.50;5050473;28;8944;-66
2023/06/30 00:14:49;;;;;;;;;1.00;1.00;;;;;16.68;64.53;101497.06;5044952;28;8928;-66
2023/06/30 00:17:16;;;;;;;;;1.00;1.00;;;;;16.65;64.15;101499.41;5048693;28;8947;-66
2023/06/30 00:19:42;;;;;;;;;2.00;1.33;;;;;16.62;64.29;101497.97;5040452;28;8965;-65
2023/06/30 00:22:09;;;;;;;;;3.00;2.00;;;;;16.60;64.30;101501.94;5050164;28;8945;-66
2023/06/30 00:24:35;;;;;;;;;1.67;1.67;;;;;16.58;64.22;101495.91;5044004;28;8931;-66
2023/06/30 00:27:01;;;;;;;;;3.00;3.00;;;;;16.56;64.62;101494.22;5036921;28;9002;-65
2023/06/30 00:29:28;;;;;;;;;1.00;1.00;;;;;16.55;64.44;101495.28;5046626;28;8933;-65
2023/06/30 00:31:55;;;;;;;;;1.00;1.00;;;;;16.53;64.81;101488.41;5047041;28;8988;-65
2023/06/30 00:34:22;;;;;;;;;1.00;1.00;;;;;16.49;64.27;101490.72;5050392;28;8830;-66
2023/06/30 00:36:48;;;;;;;;;1.33;1.33;;;;;16.46;64.79;101488.44;5036769;28;8914;-65
2023/06/30 00:39:15;;;;;;;;;4.00;2.00;;;;;16.43;64.40;101483.44;5042074;28;8949;-66
2023/06/30 00:41:41;;;;;;;;;2.00;2.00;;;;;16.41;64.86;101482.00;5040723;28;8964;-66
2023/06/30 00:44:09;;;;;;;;;3.00;2.00;;;;;16.39;64.90;101474.03;5050467;28;8903;-65
2023/06/30 00:46:35;;;;;;;;;4.00;3.00;;;;;16.36;64.33;101479.06;5048890;28;9137;-65
2023/06/30 00:49:02;;;;;;;;;2.25;1.75;;;;;16.32;64.62;101474.06;5048803;28;9087;-64
2023/06/30 00:51:28;;;;;;;;;5.67;2.00;;;;;16.30;64.64;101475.34;5044312;28;8848;-65
2023/06/30 00:53:55;;;;;;;;;1.00;1.00;;;;;16.28;64.92;101470.13;5043062;28;8917;-65
2023/06/30 00:56:24;;;;;;;;;5.75;1.00;;;;;16.25;64.61;101477.91;5048215;28;8885;-67
2023/06/30 00:58:50;;;;;;;;;2.00;1.00;;;;;16.22;64.79;101472.88;5048436;28;8868;-66
2023/06/30 01:01:23;;;;;;;;;2.00;2.00;;;;;16.23;64.80;101472.66;5048335;28;8941;-65
2023/06/30 01:03:59;;;;;;;;;2.67;1.67;;;;;16.22;64.80;101472.88;5048705;28;9743;-65
2023/06/30 01:06:38;;;;;;;;;2.00;2.00;;;;;16.21;65.39;101473.94;5049889;28;9196;-66
2023/06/30 01:09:13;;;;;;;;;1.00;1.00;;;;;16.19;65.24;101476.03;5042326;28;9197;-66
2023/06/30 01:11:41;;;;;;;;;2.67;1.00;;;;;16.18;64.92;101474.38;5045844;28;8963;-67
2023/06/30 01:14:11;;;;;;;;;2.00;2.00;;;;;16.17;65.04;101464.56;5036967;28;8987;-64
2023/06/30 01:16:40;;;;;;;;;0.00;0.00;;;;;16.18;65.34;101468.94;5051345;28;8929;-65
2023/06/30 01:19:20;;;;;;;;;2.00;2.00;;;;;16.17;65.08;101470.00;5053838;28;9178;-66
2023/06/30 01:21:47;;;;;;;;;2.67;2.00;;;;;16.13;64.98;101474.19;5035234;28;9085;-66
2023/06/30 01:24:16;;;;;;;;;1.67;1.67;;;;;16.12;64.88;101481.47;5043165;28;8939;-64
2023/06/30 01:26:43;;;;;;;;;1.00;1.00;;;;;16.08;65.01;101480.25;5048271;28;9129;-67
2023/06/30 01:29:10;;;;;;;;;2.00;1.67;;;;;16.06;65.01;101475.03;5054008;28;9006;-65
2023/06/30 01:31:36;;;;;;;;;1.00;1.00;;;;;16.05;65.08;101476.09;5038755;28;9009;-65
2023/06/30 01:34:03;;;;;;;;;2.00;1.67;;;;;16.00;64.99;101478.63;5042186;28;8922;-66
2023/06/30 01:36:29;;;;;;;;;2.00;1.00;;;;;15.97;65.09;101478.22;5051701;28;8997;-65
2023/06/30 01:38:58;;;;;;;;;3.67;1.67;;;;;15.94;65.05;101471.31;5051184;28;9292;-66
2023/06/30 01:41:25;;;;;;;;;0.67;0.67;;;;;15.93;65.20;101466.13;5044420;28;9965;-65
2023/06/30 01:43:52;;;;;;;;;2.33;2.00;;;;;15.91;65.42;101462.75;5052298;28;8891;-65
2023/06/30 01:46:19;;;;;;;;;1.00;1.00;;;;;15.90;65.43;101469.25;5053320;28;9071;-66
2023/06/30 01:48:46;;;;;;;;;1.00;1.00;;;;;15.89;65.58;101465.72;5051506;28;9149;-65
2023/06/30 01:51:13;;;;;;;;;2.00;2.00;;;;;15.87;65.32;101472.38;5048828;28;9016;-67
2023/06/30 01:53:40;;;;;;;;;1.00;1.00;;;;;15.85;65.12;101469.91;5051081;28;9146;-65
2023/06/30 01:56:06;;;;;;;;;1.00;1.00;;;;;15.83;65.29;101469.25;5049982;28;8972;-65
2023/06/30 01:58:33;;;;;;;;;0.00;0.00;;;;;15.82;65.18;101468.44;5045704;28;8980;-65
2023/06/30 02:00:59;;;;;;;;;2.00;2.00;;;;;15.80;65.15;101470.53;5051302;28;9081;-65
2023/06/30 02:03:28;;;;;;;;;0.67;0.67;;;;;15.80;65.40;101467.00;5050358;28;9196;-66
2023/06/30 02:05:54;;;;;;;;;3.00;1.00;;;;;15.79;65.53;101462.59;5048415;28;9110;-64
2023/06/30 02:08:21;;;;;;;;;2.00;2.00;;;;;15.78;65.31;101466.38;5051530;28;9221;-64
2023/06/30 02:10:48;;;;;;;;;2.00;2.00;;;;;15.76;65.48;101457.63;5051116;28;9156;-67
2023/06/30 02:13:15;;;;;;;;;1.00;1.00;;;;;15.75;65.28;101461.34;5039622;28;9239;-64
2023/06/30 02:15:42;;;;;;;;;0.33;0.33;;;;;15.77;65.33;101462.81;5050858;28;9162;-66
2023/06/30 02:18:09;;;;;;;;;0.00;0.00;;;;;15.76;65.22;101461.16;5045702;28;8983;-65
2023/06/30 02:20:35;;;;;;;;;1.00;1.00;;;;;15.76;65.42;101454.91;5048740;28;9750;-64
2023/06/30 02:23:02;;;;;;;;;0.67;0.67;;;;;15.74;65.03;101455.09;5034823;28;9171;-64
2023/06/30 02:25:28;;;;;;;;;2.00;1.00;;;;;15.72;65.12;101459.09;5051859;28;9151;-67
2023/06/30 02:27:54;;;;;;;;;0.33;0.33;;;;;15.68;65.21;101455.97;5034509;28;9017;-66
2023/06/30 02:30:21;;;;;;;;;0.00;0.00;;;;;15.65;65.54;101448.25;5045402;28;9063;-65
2023/06/30 02:32:48;;;;;;;;;1.00;1.00;;;;;15.60;65.14;101448.03;5051100;28;8911;-64
2023/06/30 02:35:14;;;;;;;;;1.00;1.00;;;;;15.59;65.74;101457.19;5051398;28;9164;-67
2023/06/30 02:37:41;;;;;;;;;1.00;1.00;;;;;15.56;65.76;101452.22;5039864;28;9201;-65
2023/06/30 02:40:09;;;;;;;;;1.33;1.33;;;;;15.54;65.82;101455.13;5052019;28;9097;-65
2023/06/30 02:42:35;;;;;;;;;1.00;1.00;;;;;15.54;65.78;101454.28;5050736;28;9176;-64
2023/06/30 02:45:03;;;;;;;;;1.00;1.00;;;;;15.53;66.17;101460.75;5030678;28;9148;-64
2023/06/30 02:47:31;;;;;;;;;2.00;1.00;;;;;15.54;66.05;101457.00;5063306;28;9156;-64
2023/06/30 02:49:57;;;;;;;;;0.00;0.00;;;;;15.53;66.12;101458.06;5050267;28;9309;-64
2023/06/30 02:52:25;;;;;;;;;0.67;0.67;;;;;15.52;66.19;101459.94;5034158;28;9093;-65
2023/06/30 02:54:52;;;;;;;;;0.33;0.33;;;;;15.51;66.38;101457.41;5046951;28;9101;-64
2023/06/30 02:57:19;;;;;;;;;1.00;1.00;;;;;15.50;66.54;101456.59;5035307;28;9761;-64
2023/06/30 02:59:46;;;;;;;;;1.67;1.00;;;;;15.48;66.33;101450.53;5044170;28;9231;-65
2023/06/30 03:02:13;;;;;;;;;2.33;0.67;;;;;15.45;66.36;101452.84;5057647;28;9223;-63
2023/06/30 03:04:40;;;;;;;;;1.67;1.00;;;;;15.42;66.17;101450.56;5051590;28;9173;-64
2023/06/30 03:07:07;;;;;;;;;1.00;1.00;;;;;15.39;66.25;101449.09;5042633;28;9295;-66
2023/06/30 03:09:36;;;;;;;;;0.00;0.00;;;;;15.40;66.38;101458.09;5049677;28;9239;-64
2023/06/30 03:12:03;;;;;;;;;1.00;1.00;;;;;15.37;66.68;101456.63;5046532;28;9329;-66
2023/06/30 03:14:29;;;;;;;;;0.00;0.00;;;;;15.34;66.89;101454.31;5047904;28;9246;-66
2023/06/30 03:16:56;;;;;;;;;1.33;1.33;;;;;15.31;66.63;101450.16;5040703;28;9812;-65
2023/06/30 03:19:23;;;;;;;;;2.00;1.00;;;;;15.30;66.85;101453.91;5030243;28;9327;-65
2023/06/30 03:21:49;;;;;;;;;3.00;1.00;;;;;15.29;66.83;101445.97;5043117;28;9173;-64
2023/06/30 03:24:17;;;;;;;;;2.00;2.00;;;;;15.25;66.67;101453.69;5050065;28;9221;-64
2023/06/30 03:26:43;;;;;;;;;2.00;1.00;;;;;15.22;67.23;101459.53;5045870;28;9371;-64
2023/06/30 03:29:18;;;;;;;;;0.67;0.67;;;;;15.19;67.11;101453.69;5039271;28;9392;-65
2023/06/30 03:31:45;;;;;;;;;0.67;0.00;;;;;15.18;67.29;101452.88;5050734;28;10030;-65
2023/06/30 03:34:11;;;;;;;;;0.67;0.67;;;;;15.16;67.54;101454.13;5038170;28;9070;-64
2023/06/30 03:36:38;;;;;;;;;1.33;1.00;;;;;15.13;67.47;101458.09;5029894;28;10166;-66
2023/06/30 03:39:07;;;;;;;;;2.00;2.00;;;;;15.12;67.61;101456.44;5032043;28;9219;-65
2023/06/30 03:41:34;;;;;;;;;2.33;1.00;;;;;15.08;67.49;101457.91;5037667;28;9363;-65
2023/06/30 03:44:00;;;;;;;;;2.00;2.00;;;;;15.06;67.74;101451.81;5049097;28;9872;-65
2023/06/30 03:46:27;;;;;;;;;1.00;1.00;;;;;15.03;67.94;101458.53;5045705;28;9292;-66
2023/06/30 03:48:53;;;;;;;;;2.00;1.75;;;;;15.01;68.30;101451.63;5045968;28;9360;-66
2023/06/30 03:51:20;;;;;;;;;2.00;2.00;;;;;15.01;67.99;101443.50;5044558;28;9545;-65
2023/06/30 03:53:50;;;;;;;;;2.00;2.00;;;;;15.01;68.39;101448.91;5035760;28;9303;-65
2023/06/30 03:56:16;;;;;;;;;1.00;1.00;;;;;15.00;68.30;101455.38;5050910;28;10000;-66
2023/06/30 03:58:43;;;;;;;;;1.00;1.00;;;;;15.01;68.78;101454.34;5049685;28;9306;-65
2023/06/30 04:01:11;;;;;;;;;1.67;1.00;;;;;14.99;68.57;101451.00;5048633;28;9313;-65
2023/06/30 04:03:38;;;;;;;;;1.33;1.33;;;;;14.99;68.61;101451.84;5048784;28;9858;-64
2023/06/30 04:06:05;;;;;;;;;4.00;1.50;;;;;14.98;68.69;101457.47;5049796;28;9259;-66
2023/06/30 04:08:31;;;;;;;;;2.00;2.00;;;;;14.99;69.04;101459.13;5045228;28;9424;-64
2023/06/30 04:10:58;;;;;;;;;1.00;1.00;;;;;15.06;69.02;101457.25;5046896;28;9363;-65
2023/06/30 04:13:24;;;;;;;;;2.00;1.00;;;;;15.20;69.05;101456.22;5043492;28;9256;-65
2023/06/30 04:15:51;;;;;;;;;2.00;1.33;;;;;15.27;68.74;101454.34;5050590;28;9901;-66
2023/06/30 04:18:17;;;;;;;;;0.33;0.33;;;;;15.28;68.62;101455.16;5044633;28;9252;-65
2023/06/30 04:20:44;;;;;;;;;1.67;1.00;;;;;15.26;68.68;101460.78;5047325;28;9295;-64
2023/06/30 04:23:10;;;;;;;;;2.00;1.67;;;;;15.26;68.55;101457.25;5045603;28;9327;-65
2023/06/30 04:25:37;;;;;;;;;1.00;1.00;;;;;15.23;68.68;101454.94;5033970;28;9232;-66
2023/06/30 04:28:03;;;;;;;;;1.00;1.00;;;;;15.23;68.84;101453.09;5045006;28;9154;-66
2023/06/30 04:30:30;;;;;;;;;0.00;0.00;;;;;15.22;68.81;101456.81;5049978;28;9098;-66
2023/06/30 04:32:56;;;;;;;;;1.00;1.00;;;;;15.22;69.13;101447.84;5053428;28;9309;-67
2023/06/30 04:35:25;;;;;;;;;0.67;0.67;;;;;15.22;69.24;101454.13;5060246;28;9302;-65
2023/06/30 04:37:52;;;;;;;;;1.00;1.00;;;;;15.24;69.48;101449.34;5070245;28;9981;-66
2023/06/30 04:40:18;;;;;;;;;0.00;0.00;;;;;15.26;69.46;101452.66;5047443;28;9312;-66
2023/06/30 04:42:45;;;;;;;;;1.67;1.67;;;;;15.27;69.92;101448.91;5047924;28;9212;-65
2023/06/30 04:45:11;;;;;;;;;1.00;1.00;;;;;15.30;69.59;101453.91;5041874;28;9238;-65
2023/06/30 04:47:38;;;;;;;;;1.33;1.33;;;;;15.33;70.03;101449.94;5048875;28;9223;-65
2023/06/30 04:50:05;;;;;;;;;2.00;2.00;;;;;15.36;69.69;101443.28;5049271;28;9166;-65
2023/06/30 04:52:32;;;;;;;;;1.00;1.00;;;;;15.39;69.77;101456.38;5044420;28;9146;-66
2023/06/30 04:54:58;;;;;;;;;0.00;0.00;;;;;15.39;69.48;101454.50;5046163;28;9067;-66
2023/06/30 04:57:26;;;;;;;;;2.00;2.00;;;;;15.42;69.48;101450.56;5042973;28;9020;-65
2023/06/30 04:59:54;;;;;;;;;3.00;1.33;;;;;15.44;69.60;101449.31;5047511;28;9182;-66
2023/06/30 05:02:21;;;;;;;;;1.33;1.33;;;;;15.47;69.13;101454.28;5054357;28;9012;-66
2023/06/30 05:04:49;;;;;;;;;1.00;1.00;;;;;15.50;68.94;101464.72;5049627;28;9063;-66
2023/06/30 05:07:15;;;;;;;;;2.00;2.00;;;;;15.53;68.73;101460.75;5035339;28;9576;-65
2023/06/30 05:09:42;;;;;;;;;1.33;1.33;;;;;15.53;68.82;101460.75;5032871;28;9081;-63
2023/06/30 05:12:08;;;;;;;;;0.00;0.00;;;;;15.56;68.32;101461.19;5044580;28;9012;-65
2023/06/30 05:14:35;;;;;;;;;1.00;1.00;;;;;15.60;68.48;101467.00;5049911;28;8977;-65
2023/06/30 05:17:02;;;;;;;;;2.00;1.00;;;;;15.62;68.41;101464.09;5049861;28;9072;-64
2023/06/30 05:19:28;;;;;;;;;1.00;1.00;;;;;15.65;68.33;101455.56;5037293;28;8991;-65
2023/06/30 05:21:55;;;;;;;;;1.33;1.33;;;;;15.66;67.86;101451.78;5040070;28;8945;-65
2023/06/30 05:24:21;;;;;;;;;2.00;0.00;;;;;15.70;68.14;101450.31;5039061;28;9076;-66
2023/06/30 05:26:48;;;;;;;;;1.00;1.00;;;;;15.75;68.06;101451.31;5042988;28;9047;-65
2023/06/30 05:29:14;;;;;;;;;5.00;2.00;;;;;15.81;68.01;101461.34;5038645;28;9142;-65
2023/06/30 05:31:41;;;;;;;;;3.00;2.00;;;;;15.87;68.15;101459.66;5029596;28;8967;-66
2023/06/30 05:34:08;;;;;;;;;1.00;0.00;;;;;15.98;68.18;101455.44;5037424;28;8990;-66
2023/06/30 05:36:35;;;;;;;;;1.00;1.00;;;;;16.16;68.16;101446.56;5048118;28;9707;-66
2023/06/30 05:39:03;;;;;;;;;1.00;1.00;;;;;16.38;67.84;101452.53;5035631;28;9852;-66
2023/06/30 05:41:29;;;;;;;;;0.00;0.00;;;;;16.59;67.88;101456.78;5037782;28;8840;-66
2023/06/30 05:43:55;;;;;;;;;0.50;0.50;;;;;16.77;67.18;101451.47;5053914;28;8806;-66
2023/06/30 05:46:22;;;;;;;;;1.00;0.75;;;;;16.94;66.95;101451.78;5042195;28;8839;-66
2023/06/30 05:48:48;;;;;;;;;1.00;1.00;;;;;17.06;66.56;101450.00;5053313;28;8827;-63
2023/06/30 05:51:15;;;;;;;;;3.00;1.50;;;;;17.18;65.77;101450.94;5057877;28;9253;-64
2023/06/30 05:53:41;;;;;;;;;0.25;0.25;;;;;17.29;65.74;101457.50;5064324;28;8835;-66
2023/06/30 05:56:08;;;;;;;;;0.75;0.75;;;;;17.35;65.36;101455.81;5061999;28;8864;-65
2023/06/30 05:58:37;;;;;;;;;0.00;0.00;;;;;17.41;65.23;101454.91;5043730;28;8824;-65
2023/06/30 06:01:04;;;;;;;;;1.00;1.00;;;;;17.46;65.27;101455.03;5055969;28;8834;-65
2023/06/30 06:03:30;;;;;;;;;0.50;0.00;;;;;17.48;65.15;101447.50;5032962;28;8844;-65
2023/06/30 06:05:57;;;;;;;;;0.50;0.50;;;;;17.48;64.69;101456.50;5033045;28;8843;-66
2023/06/30 06:08:24;;;;;;;;;0.75;0.75;;;;;17.49;64.48;101457.31;5032966;28;9539;-66
2023/06/30 06:10:51;;;;;;;;;1.00;1.00;;;;;17.51;64.42;101452.50;5032787;28;8951;-65
2023/06/30 06:13:35;;;;;;;;;1.00;1.00;;;;;17.52;63.54;101448.72;5033864;28;8798;-65
2023/06/30 06:16:02;;;;;;;;;1.00;0.25;;;;;17.50;63.45;101451.66;5032700;28;8824;-66
2023/06/30 06:18:29;;;;;;;;;1.50;1.50;;;;;17.53;63.17;101444.94;5036938;28;8830;-66
2023/06/30 06:20:56;;;;;;;;;1.25;1.25;;;;;17.50;63.42;101446.22;5052199;28;8846;-64
2023/06/30 06:23:24;;;;;;;;;1.50;1.00;;;;;17.51;63.24;101449.78;5050941;28;8915;-65
2023/06/30 06:25:51;;;;;;;;;1.50;1.50;;;;;17.50;63.59;101451.66;5043263;28;8814;-66
2023/06/30 06:28:17;;;;;;;;;0.00;0.00;;;;;17.52;63.66;101446.81;5063135;28;8904;-66
2023/06/30 06:30:44;;;;;;;;;0.75;0.75;;;;;17.52;63.19;101449.53;5051506;28;9540;-65
2023/06/30 06:33:11;;;;;;;;;1.00;1.00;;;;;17.51;63.25;101461.50;5071425;28;8843;-65
2023/06/30 06:35:38;;;;;;;;;3.00;0.50;;;;;17.50;62.71;101459.84;5047110;28;8917;-64
2023/06/30 06:38:04;;;;;;;;;1.00;1.00;;;;;17.51;62.75;101456.06;5032242;28;8837;-65
2023/06/30 06:40:32;;;;;;;;;1.00;1.00;;;;;17.56;63.21;101441.75;5030576;28;9634;-66
2023/06/30 06:42:59;;;;;;;;;1.00;1.00;;;;;17.53;62.13;101444.94;5032282;28;8841;-65
2023/06/30 06:45:26;;;;;;;;;1.00;1.00;;;;;17.51;61.90;101444.34;5032812;28;8995;-65
2023/06/30 06:48:21;;;;;;;;;0.25;0.25;;;;;17.53;61.88;101447.66;5052356;28;8960;-67
2023/06/30 06:50:49;;;;;;;;;1.00;0.75;;;;;17.54;61.78;101460.19;5036199;28;9514;-65
2023/06/30 06:53:21;;;;;;;;;2.50;0.00;;;;;17.57;61.56;101453.47;5032096;28;8902;-65
2023/06/30 06:55:48;;;;;;;;;1.00;1.00;;;;;17.63;62.12;101449.88;5032184;28;8832;-65
2023/06/30 06:58:15;;;;;;;;;2.75;1.00;;;;;17.67;61.66;101446.47;5032107;28;8890;-67
2023/06/30 07:00:44;;;;;;;;;3.75;2.00;;;;;17.66;61.64;101452.97;5044630;28;8845;-65
2023/06/30 07:03:10;;;;;;;;;1.75;1.75;;;;;17.68;61.59;101439.94;5050759;28;8829;-66
2023/06/30 07:05:40;;;;;;;;;1.00;1.00;;;;;17.69;61.74;101443.50;5051797;28;8840;-65
2023/06/30 07:08:07;;;;;;;;;1.00;1.00;;;;;17.71;61.64;101449.56;5052084;28;8833;-66
2023/06/30 07:10:33;;;;;;;;;0.50;0.50;;;;;17.76;61.21;101453.28;5051693;28;8826;-68
2023/06/30 07:13:01;;;;;;;;;0.00;0.00;;;;;17.83;60.59;101455.13;5051861;28;8959;-66
2023/06/30 07:15:28;;;;;;;;;1.00;1.00;;;;;17.89;60.50;101457.75;5049394;28;8836;-66
2023/06/30 07:17:56;;;;;;;;;1.00;1.00;;;;;17.94;60.84;101459.78;5049614;28;8824;-65
2023/06/30 07:20:23;;;;;;;;;0.25;0.25;;;;;17.92;60.27;101464.66;5030132;28;8955;-66
2023/06/30 07:22:51;;;;;;;;;1.00;1.00;;;;;17.90;60.37;101459.41;5032464;28;8833;-66
2023/06/30 07:25:17;;;;;;;;;2.00;2.00;;;;;17.85;60.04;101461.16;5050768;28;8874;-64
2023/06/30 07:27:53;;;;;;;;;0.50;0.50;;;;;17.90;60.07;101458.56;5050876;28;8899;-66
2023/06/30 07:30:21;;;;;;;;;1.00;1.00;;;;;17.96;60.06;101458.50;5051247;28;8818;-66
2023/06/30 07:32:48;;;;;;;;;2.00;1.50;;;;;17.94;59.74;101454.34;5048123;28;8845;-65
2023/06/30 07:35:14;;;;;;;;;0.25;0.25;;;;;17.95;59.50;101454.13;5035997;28;9588;-64
2023/06/30 07:37:41;;;;;;;;;1.00;1.00;;;;;18.02;59.60;101449.41;5040279;28;8876;-64
2023/06/30 07:40:08;;;;;;;;;0.50;0.50;;;;;18.08;59.53;101455.84;5051205;28;8830;-65
2023/06/30 07:42:46;;;;;;;;;1.00;1.00;;;;;18.16;59.59;101447.38;5049906;28;8841;-65
2023/06/30 07:45:15;;;;;;;;;0.25;0.25;;;;;18.19;59.97;101441.47;5051333;28;8822;-65
2023/06/30 07:47:43;;;;;;;;;2.00;1.00;;;;;18.23;59.77;101441.81;5033224;28;8841;-65
2023/06/30 07:50:12;;;;;;;;;2.00;1.75;;;;;18.25;59.51;101435.06;5035280;28;8844;-64
2023/06/30 07:52:44;;;;;;;;;1.50;1.50;;;;;18.28;59.92;101434.63;5048883;28;8903;-66
2023/06/30 07:55:15;;;;;;;;;2.25;0.50;;;;;18.28;60.21;101434.63;5050712;28;8818;-64
2023/06/30 07:57:43;;;;;;;;;2.00;1.00;;;;;18.32;59.72;101436.88;5049746;28;8834;-67
2023/06/30 08:00:15;;;;;;;;;1.75;1.00;;;;;18.37;59.15;101437.84;5049580;28;8838;-64
2023/06/30 08:02:42;;;;;;;;;1.50;1.00;;;;;18.40;58.99;101439.28;5050665;28;8856;-65
2023/06/30 08:05:09;;;;;;;;;0.00;0.00;;;;;18.41;59.08;101427.31;5049169;28;8830;-68
2023/06/30 08:07:36;;;;;;;;;1.00;1.00;;;;;18.47;58.90;101427.22;5050761;28;8951;-64
2023/06/30 08:10:16;;;;;;;;;0.75;0.75;;;;;18.48;58.58;101426.16;5043591;28;8947;-65
2023/06/30 08:12:43;;;;;;;;;1.00;1.00;;;;;18.45;58.22;101423.06;5030651;28;8828;-66
2023/06/30 08:15:09;;;;;;;;;2.00;1.00;;;;;18.43;57.85;101425.16;5029779;28;8836;-66
2023/06/30 08:17:36;;;;;;;;;2.00;1.25;;;;;18.43;57.45;101441.53;5029511;28;8844;-65
2023/06/30 08:20:19;;;;;;;;;0.75;0.75;;;;;18.43;57.32;101434.22;5030730;28;8855;-66
2023/06/30 08:22:46;;;;;;;;;3.50;2.00;;;;;18.50;57.51;101431.38;5052648;28;8840;-64
2023/06/30 08:25:12;;;;;;;;;0.00;0.00;;;;;18.57;57.44;101429.38;5035767;28;8991;-65
2023/06/30 08:27:39;;;;;;;;;0.50;0.50;;;;;18.65;57.32;101431.78;5029975;28;8886;-65
2023/06/30 08:30:06;;;;;;;;;3.00;2.00;;;;;18.68;56.99;101422.31;5031195;28;8974;-66
2023/06/30 08:32:33;;;;;;;;;1.00;1.00;;;;;18.67;56.78;101434.25;5050270;28;8841;-66
2023/06/30 08:34:59;;;;;;;;;1.00;1.00;;;;;18.71;57.08;101427.28;5050385;28;8820;-66
2023/06/30 08:37:28;;;;;;;;;1.50;1.00;;;;;18.78;56.83;101425.31;5050309;28;8850;-65
2023/06/30 08:39:54;;;;;;;;;1.25;1.00;;;;;18.80;56.22;101422.34;5050359;28;8848;-66
2023/06/30 08:42:28;;;;;;;;;2.00;2.00;;;;;18.80;56.06;101420.47;5049937;28;8927;-65
2023/06/30 08:44:56;;;;;;;;;2.75;2.00;;;;;18.75;56.00;101423.03;5032604;28;8820;-65
2023/06/30 08:47:28;;;;;;;;;2.00;2.00;;;;;18.77;56.06;101418.19;5031473;28;8828;-64
2023/06/30 08:49:56;;;;;;;;;1.75;1.25;;;;;18.77;55.86;101419.03;5030359;28;8859;-66
2023/06/30 08:52:22;;;;;;;;;1.75;1.75;;;;;18.80;55.77;101411.41;5028678;28;9619;-64
2023/06/30 08:54:49;;;;;;;;;1.50;1.50;;;;;18.81;55.85;101411.19;5030202;28;8894;-65
2023/06/30 08:57:16;;;;;;;;;1.00;1.00;;;;;18.78;56.15;101409.75;5028981;28;8895;-66
2023/06/30 08:59:43;;;;;;;;;2.00;2.00;;;;;18.70;55.78;101404.66;5033825;28;9552;-65
2023/06/30 09:02:11;;;;;;;;;1.00;1.00;;;;;18.75;55.93;101399.31;5049705;28;8857;-65
2023/06/30 09:04:40;;;;;;;;;2.75;2.75;;;;;18.71;55.39;101402.75;5044367;28;8886;-65
2023/06/30 09:07:15;;;;;;;;;1.25;1.25;;;;;18.75;55.22;101396.59;5044975;28;8830;-66
2023/06/30 09:09:44;;;;;;;;;1.75;1.75;;;;;18.87;55.53;101393.06;5049946;28;8830;-65
2023/06/30 09:12:10;;;;;;;;;5.00;2.75;;;;;18.84;55.42;101394.38;5049216;28;8826;-65
2023/06/30 09:14:40;;;;;;;;;2.50;2.00;;;;;18.95;55.03;101390.81;5049735;28;8822;-65
2023/06/30 09:17:06;;;;;;;;;1.75;0.75;;;;;19.09;55.10;101394.16;5040615;28;8839;-67
2023/06/30 09:19:33;;;;;;;;;0.25;0.25;;;;;19.15;54.63;101385.00;5031736;28;8840;-65
2023/06/30 09:22:01;;;;;;;;;1.00;1.00;;;;;19.18;54.39;101389.16;5047993;28;8869;-65
2023/06/30 09:24:48;;;;;;;;;1.00;1.00;;;;;19.20;54.51;101370.63;5048171;28;8813;-65
2023/06/30 09:27:16;;;;;;;;;2.00;2.00;;;;;19.26;54.51;101381.44;5048485;28;8829;-67
2023/06/30 09:29:53;;;;;;;;;2.00;2.00;;;;;19.33;54.27;101377.75;5048539;28;8830;-64
2023/06/30 09:32:27;;;;;;;;;1.00;1.00;;;;;19.34;53.92;101371.22;5046803;28;8857;-65
2023/06/30 09:34:54;;;;;;;;;2.75;2.00;;;;;19.33;53.90;101386.78;5030769;28;8833;-64
2023/06/30 09:37:21;;;;;;;;;2.00;2.00;;;;;19.35;53.50;101381.06;5030522;28;8817;-64
2023/06/30 09:39:52;;;;;;;;;1.00;1.00;;;;;19.39;53.60;101379.50;5038830;28;8810;-65
2023/06/30 09:42:20;;;;;;;;;2.00;2.00;;;;;19.32;53.35;101385.09;5048602;28;8876;-64
2023/06/30 09:44:47;;;;;;;;;2.50;2.50;;;;;19.23;52.90;101370.97;5034691;28;8962;-66
2023/06/30 09:47:17;;;;;;;;;2.50;2.50;;;;;19.27;53.21;101383.09;5050457;28;8830;-64
2023/06/30 09:49:45;;;;;;;;;2.00;1.00;;;;;19.31;53.34;101372.53;5040444;28;8868;-65
2023/06/30 09:52:22;;;;;;;;;1.25;1.25;;;;;19.32;53.38;101374.19;5033289;28;8836;-65
2023/06/30 09:54:49;;;;;;;;;1.00;1.00;;;;;19.37;53.19;101374.31;5046008;28;8825;-65
2023/06/30 09:57:15;;;;;;;;;0.50;0.50;;;;;19.45;53.14;101365.75;5053150;28;8903;-65
2023/06/30 09:59:42;;;;;;;;;1.00;1.00;;;;;19.55;53.06;101367.84;5053318;28;8861;-66
2023/06/30 10:02:10;;;;;;;;;1.00;1.00;;;;;19.55;52.62;101376.03;5052686;28;8857;-65
2023/06/30 10:04:36;;;;;;;;;1.00;1.00;;;;;19.56;52.63;101369.50;5051826;28;8821;-66
2023/06/30 10:07:05;;;;;;;;;2.00;2.00;;;;;19.45;51.75;101363.03;5051950;28;8829;-66
2023/06/30 10:09:34;;;;;;;;;2.25;2.25;;;;;19.50;52.06;101359.56;5050252;28;8826;-65
2023/06/30 10:12:01;;;;;;;;;1.25;1.00;;;;;19.59;52.28;101360.84;5052959;28;8904;-66
2023/06/30 10:14:30;;;;;;;;;1.50;1.50;;;;;19.55;51.83;101369.75;5052387;28;8848;-66
2023/06/30 10:17:00;;;;;;;;;1.00;1.00;;;;;19.64;52.15;101366.44;5051188;28;8818;-66
2023/06/30 10:19:30;;;;;;;;;0.75;0.75;;;;;19.77;52.25;101354.41;5052810;28;8814;-64
2023/06/30 10:21:57;;;;;;;;;1.75;1.75;;;;;19.79;51.80;101349.53;5036981;28;8914;-66
2023/06/30 10:24:26;;;;;;;;;0.25;0.25;;;;;19.89;51.39;101359.81;5031610;28;8833;-65
2023/06/30 10:26:54;;;;;;;;;1.00;1.00;;;;;19.95;50.59;101353.38;5031468;28;9516;-65
2023/06/30 10:29:22;;;;;;;;;2.00;2.00;;;;;19.92;49.32;101360.16;5032664;28;8836;-66
2023/06/30 10:31:49;;;;;;;;;1.50;0.75;;;;;19.95;49.20;101351.47;5032261;28;8859;-66
2023/06/30 10:34:17;;;;;;;;;1.00;1.00;;;;;20.03;49.74;101342.06;5032953;28;8832;-66
2023/06/30 10:36:44;;;;;;;;;3.50;1.50;;;;;20.02;49.95;101345.06;5051088;28;8822;-66
2023/06/30 10:39:11;;;;;;;;;0.75;0.75;;;;;20.10;49.89;101331.81;5052148;28;8972;-69
2023/06/30 10:41:45;;;;;;;;;4.00;4.00;;;;;20.15;49.62;101340.09;5051632;28;8858;-66
2023/06/30 10:44:12;;;;;;;;;1.75;1.00;;;;;20.03;49.19;101338.50;5052352;28;8856;-66
2023/06/30 10:46:49;;;;;;;;;2.00;2.00;;;;;20.06;50.23;101330.66;5050657;28;8972;-65
2023/06/30 10:49:29;;;;;;;;;2.00;2.00;;;;;20.12;50.46;101335.13;5051505;28;8864;-65
2023/06/30 10:51:58;;;;;;;;;1.75;1.00;;;;;20.15;50.51;101333.81;5052092;28;8854;-66
2023/06/30 10:54:41;;;;;;;;;2.00;2.00;;;;;20.14;50.57;101335.72;5052023;28;8887;-67
2023/06/30 10:57:24;;;;;;;;;3.00;3.00;;;;;20.05;50.49;101337.16;5052214;28;8852;-65
2023/06/30 11:00:11;;;;;;;;;2.00;2.00;;;;;20.10;51.08;101328.25;5050506;28;8818;-66
2023/06/30 11:02:50;;;;;;;;;1.25;1.25;;;;;20.14;51.46;101329.44;5052014;28;8850;-65
2023/06/30 11:05:21;;;;;;;;;1.50;1.50;;;;;20.14;51.63;101327.53;5047717;28;8851;-64
2023/06/30 11:08:06;;;;;;;;;1.00;1.00;;;;;20.13;52.02;101325.00;5031499;28;8854;-65
2023/06/30 11:10:44;;;;;;;;;1.00;1.00;;;;;20.25;51.67;101315.69;5032357;28;8823;-65
2023/06/30 11:13:11;;;;;;;;;3.00;3.00;;;;;20.34;51.57;101301.63;5032184;28;8844;-64
2023/06/30 11:15:43;;;;;;;;;2.25;2.25;;;;;20.33;51.29;101302.66;5034437;28;8836;-66
2023/06/30 11:18:22;;;;;;;;;2.00;2.00;;;;;20.42;51.04;101303.94;5052270;28;8822;-64
2023/06/30 11:21:01;;;;;;;;;2.00;2.00;;;;;20.53;50.97;101303.03;5051823;28;8850;-65
2023/06/30 11:23:32;;;;;;;;;2.75;2.75;;;;;20.55;50.71;101295.41;5052696;28;8838;-65
2023/06/30 11:26:11;;;;;;;;;1.00;1.00;;;;;20.52;50.96;101290.44;5060147;28;8981;-65
2023/06/30 11:28:40;;;;;;;;;2.00;2.00;;;;;20.44;51.10;101288.09;5060451;28;8861;-65
2023/06/30 11:31:07;;;;;;;;;2.25;2.25;;;;;20.34;51.18;101296.97;5055502;28;8900;-64
2023/06/30 11:33:47;;;;;;;;;3.50;3.50;;;;;20.27;51.02;101298.22;5036438;28;8840;-64
2023/06/30 11:36:16;;;;;;;;;3.00;3.00;;;;;20.20;51.45;101288.25;5032607;28;8951;-65
2023/06/30 11:38:46;;;;;;;;;1.75;1.75;;;;;20.17;51.47;101288.72;5031351;28;8832;-65